sensor_id;sensor_type;location;lat;lon;timestamp;temperature;humidity
27779;DHT22;30234;48.090;11.464;2022-10-17T00:03:38;9.60;99.90
27779;DHT22;30234;48.090;11.464;2022-10-17T00:07:39;9.60;99.90
27779;DHT22;30234;48.090;11.464;2022-10-17T00:11:40;9.50;99.90
27779;DHT22;30234;48.090;11.464;2022-10-17T00:15:43;9.50;99.90
27779;DHT22;30234;48.090;11.464;2022-10-17T00:19:44;9.70;99.90
27779;DHT22;30234;48.090;11.464;2022-10-17T00:23:45;9.40;99.90
27779;DHT22;30234;48.090;11.464;2022-10-17T00:27:46;9.40;99.90
27779;DHT22;30234;48.090;11.464;2022-10-17T00:31:47;9.40;99.90
27779;DHT22;30234;48.090;11.464;2022-10-17T00:35:48;10.40;99.90
27779;DHT22;30234;48.090;11.464;2022-10-17T00:39:49;9.20;99.90
27779;DHT22;30234;48.090;11.464;2022-10-17T00:43:55;9.10;99.90
27779;DHT22;30234;48.090;11.464;2022-10-17T00:48:08;9.00;99.90
27779;DHT22;30234;48.090;11.464;2022-10-17T00:52:22;9.00;99.90
27779;DHT22;30234;48.090;11.464;2022-10-17T00:56:25;9.00;99.90
27779;DHT22;30234;48.090;11.464;2022-10-17T01:00:26;9.00;99.90
27779;DHT22;30234;48.090;11.464;2022-10-17T01:04:27;9.00;99.90
27779;DHT22;30234;48.090;11.464;2022-10-17T01:08:28;10.10;99.90
27779;DHT22;30234;48.090;11.464;2022-10-17T01:18:05;9.00;99.90
27779;DHT22;30234;48.090;11.464;2022-10-17T01:39:39;8.90;99.90
27779;DHT22;30234;48.090;11.464;2022-10-17T01:43:48;8.80;99.90
27779;DHT22;30234;48.090;11.464;2022-10-17T01:48:10;8.80;99.90
27779;DHT22;30234;48.090;11.464;2022-10-17T01:52:33;8.80;99.90
27779;DHT22;30234;48.090;11.464;2022-10-17T01:56:39;8.70;99.90
27779;DHT22;30234;48.090;11.464;2022-10-17T02:00:42;8.70;99.90
27779;DHT22;30234;48.090;11.464;2022-10-17T02:04:46;8.60;99.90
27779;DHT22;30234;48.090;11.464;2022-10-17T02:08:49;8.50;99.90
27779;DHT22;30234;48.090;11.464;2022-10-17T02:13:02;8.50;99.90
27779;DHT22;30234;48.090;11.464;2022-10-17T02:26:54;8.40;99.90
27779;DHT22;30234;48.090;11.464;2022-10-17T02:31:16;8.40;99.90
27779;DHT22;30234;48.090;11.464;2022-10-17T02:35:21;8.50;99.90
27779;DHT22;30234;48.090;11.464;2022-10-17T02:39:26;8.40;99.90
27779;DHT22;30234;48.090;11.464;2022-10-17T02:43:28;8.40;99.90
27779;DHT22;30234;48.090;11.464;2022-10-17T02:47:36;8.50;99.90
27779;DHT22;30234;48.090;11.464;2022-10-17T02:51:44;8.50;99.90
27779;DHT22;30234;48.090;11.464;2022-10-17T02:55:54;8.50;99.90
27779;DHT22;30234;48.090;11.464;2022-10-17T03:00:00;8.60;99.90
27779;DHT22;30234;48.090;11.464;2022-10-17T03:04:09;8.40;99.90
27779;DHT22;30234;48.090;11.464;2022-10-17T03:08:11;8.30;99.90
27779;DHT22;30234;48.090;11.464;2022-10-17T03:12:12;8.30;99.90
27779;DHT22;30234;48.090;11.464;2022-10-17T03:16:13;8.20;99.90
27779;DHT22;30234;48.090;11.464;2022-10-17T03:20:14;8.20;99.90
27779;DHT22;30234;48.090;11.464;2022-10-17T03:24:14;8.20;99.90
27779;DHT22;30234;48.090;11.464;2022-10-17T03:28:15;8.30;99.90
27779;DHT22;30234;48.090;11.464;2022-10-17T03:32:16;8.20;99.90
27779;DHT22;30234;48.090;11.464;2022-10-17T03:36:17;8.10;99.90
27779;DHT22;30234;48.090;11.464;2022-10-17T03:40:19;8.00;99.90
27779;DHT22;30234;48.090;11.464;2022-10-17T03:44:20;8.00;99.90
27779;DHT22;30234;48.090;11.464;2022-10-17T03:48:21;7.90;99.90
27779;DHT22;30234;48.090;11.464;2022-10-17T03:52:21;8.00;99.90
27779;DHT22;30234;48.090;11.464;2022-10-17T03:56:23;8.00;99.90
27779;DHT22;30234;48.090;11.464;2022-10-17T04:00:24;7.90;99.90
27779;DHT22;30234;48.090;11.464;2022-10-17T04:04:25;7.80;99.90
27779;DHT22;30234;48.090;11.464;2022-10-17T04:08:27;7.80;99.90
27779;DHT22;30234;48.090;11.464;2022-10-17T04:12:28;7.90;99.90
27779;DHT22;30234;48.090;11.464;2022-10-17T04:16:29;7.70;99.90
27779;DHT22;30234;48.090;11.464;2022-10-17T04:20:29;7.70;99.90
27779;DHT22;30234;48.090;11.464;2022-10-17T04:24:30;7.70;99.90
27779;DHT22;30234;48.090;11.464;2022-10-17T04:28:31;7.60;99.90
27779;DHT22;30234;48.090;11.464;2022-10-17T04:32:36;7.60;99.90
27779;DHT22;30234;48.090;11.464;2022-10-17T04:36:38;7.60;99.90
27779;DHT22;30234;48.090;11.464;2022-10-17T04:40:38;7.60;99.90
27779;DHT22;30234;48.090;11.464;2022-10-17T04:44:39;7.60;99.90
27779;DHT22;30234;48.090;11.464;2022-10-17T04:48:40;7.70;99.90
27779;DHT22;30234;48.090;11.464;2022-10-17T04:52:41;7.70;99.90
27779;DHT22;30234;48.090;11.464;2022-10-17T04:56:42;7.60;99.90
27779;DHT22;30234;48.090;11.464;2022-10-17T05:00:43;7.50;99.90
27779;DHT22;30234;48.090;11.464;2022-10-17T05:04:43;7.60;99.90
27779;DHT22;30234;48.090;11.464;2022-10-17T05:08:45;7.60;99.90
27779;DHT22;30234;48.090;11.464;2022-10-17T05:12:48;9.50;99.90
27779;DHT22;30234;48.090;11.464;2022-10-17T05:16:49;9.20;99.90
27779;DHT22;30234;48.090;11.464;2022-10-17T05:20:50;8.70;99.90
27779;DHT22;30234;48.090;11.464;2022-10-17T05:24:51;7.60;99.90
27779;DHT22;30234;48.090;11.464;2022-10-17T05:28:52;7.70;99.90
27779;DHT22;30234;48.090;11.464;2022-10-17T05:32:54;7.70;99.90
27779;DHT22;30234;48.090;11.464;2022-10-17T05:36:56;7.70;99.90
27779;DHT22;30234;48.090;11.464;2022-10-17T05:41:02;7.80;99.90
27779;DHT22;30234;48.090;11.464;2022-10-17T05:45:04;7.70;99.90
27779;DHT22;30234;48.090;11.464;2022-10-17T05:49:05;7.70;99.90
27779;DHT22;30234;48.090;11.464;2022-10-17T05:53:06;7.80;99.90
27779;DHT22;30234;48.090;11.464;2022-10-17T05:57:07;7.90;99.90
27779;DHT22;30234;48.090;11.464;2022-10-17T06:01:09;9.00;99.90
27779;DHT22;30234;48.090;11.464;2022-10-17T06:05:10;8.00;99.90
27779;DHT22;30234;48.090;11.464;2022-10-17T06:09:11;8.10;99.90
27779;DHT22;30234;48.090;11.464;2022-10-17T06:13:12;8.20;99.90
27779;DHT22;30234;48.090;11.464;2022-10-17T06:17:13;8.30;99.90
27779;DHT22;30234;48.090;11.464;2022-10-17T06:21:18;9.20;99.90
27779;DHT22;30234;48.090;11.464;2022-10-17T06:25:21;8.40;99.90
27779;DHT22;30234;48.090;11.464;2022-10-17T06:29:22;9.80;99.90
27779;DHT22;30234;48.090;11.464;2022-10-17T06:33:23;8.70;99.90
27779;DHT22;30234;48.090;11.464;2022-10-17T06:37:24;10.20;99.90
27779;DHT22;30234;48.090;11.464;2022-10-17T06:41:25;9.70;99.90
27779;DHT22;30234;48.090;11.464;2022-10-17T06:45:25;11.40;99.90
27779;DHT22;30234;48.090;11.464;2022-10-17T06:49:26;13.30;99.90
27779;DHT22;30234;48.090;11.464;2022-10-17T06:53:29;14.10;99.90
27779;DHT22;30234;48.090;11.464;2022-10-17T06:57:31;15.60;99.90
27779;DHT22;30234;48.090;11.464;2022-10-17T07:01:32;18.60;99.90
27779;DHT22;30234;48.090;11.464;2022-10-17T07:05:33;21.70;99.90
27779;DHT22;30234;48.090;11.464;2022-10-17T07:09:34;24.40;99.90
27779;DHT22;30234;48.090;11.464;2022-10-17T07:13:35;25.90;99.90
27779;DHT22;30234;48.090;11.464;2022-10-17T07:17:36;26.40;99.90
27779;DHT22;30234;48.090;11.464;2022-10-17T07:21:36;26.60;99.90
27779;DHT22;30234;48.090;11.464;2022-10-17T07:25:37;27.60;99.90
27779;DHT22;30234;48.090;11.464;2022-10-17T07:29:38;29.50;97.20
27779;DHT22;30234;48.090;11.464;2022-10-17T07:33:39;30.60;89.10
27779;DHT22;30234;48.090;11.464;2022-10-17T07:37:40;31.70;82.20
27779;DHT22;30234;48.090;11.464;2022-10-17T07:41:41;32.40;72.70
27779;DHT22;30234;48.090;11.464;2022-10-17T07:45:42;32.20;64.00
27779;DHT22;30234;48.090;11.464;2022-10-17T07:49:43;32.10;60.60
27779;DHT22;30234;48.090;11.464;2022-10-17T07:53:44;31.20;60.50
27779;DHT22;30234;48.090;11.464;2022-10-17T07:57:45;31.90;59.60
27779;DHT22;30234;48.090;11.464;2022-10-17T08:01:46;32.50;57.00
27779;DHT22;30234;48.090;11.464;2022-10-17T08:05:48;32.70;56.50
27779;DHT22;30234;48.090;11.464;2022-10-17T08:09:48;33.20;56.20
27779;DHT22;30234;48.090;11.464;2022-10-17T08:13:50;33.80;53.60
27779;DHT22;30234;48.090;11.464;2022-10-17T08:17:51;33.00;53.50
27779;DHT22;30234;48.090;11.464;2022-10-17T08:21:53;32.40;53.30
27779;DHT22;30234;48.090;11.464;2022-10-17T08:25:57;32.20;53.90
27779;DHT22;30234;48.090;11.464;2022-10-17T08:29:59;31.80;53.50
27779;DHT22;30234;48.090;11.464;2022-10-17T08:34:01;30.80;54.50
27779;DHT22;30234;48.090;11.464;2022-10-17T08:38:02;30.60;55.90
27779;DHT22;30234;48.090;11.464;2022-10-17T08:46:18;31.10;52.80
27779;DHT22;30234;48.090;11.464;2022-10-17T08:50:42;31.50;53.20
27779;DHT22;30234;48.090;11.464;2022-10-17T08:54:47;31.50;52.20
27779;DHT22;30234;48.090;11.464;2022-10-17T08:58:48;31.50;52.90
27779;DHT22;30234;48.090;11.464;2022-10-17T09:11:52;32.00;52.70
27779;DHT22;30234;48.090;11.464;2022-10-17T09:24:50;32.80;50.50
27779;DHT22;30234;48.090;11.464;2022-10-17T09:28:57;32.90;50.90
27779;DHT22;30234;48.090;11.464;2022-10-17T09:32:59;33.20;50.10
27779;DHT22;30234;48.090;11.464;2022-10-17T09:37:01;32.50;51.00
27779;DHT22;30234;48.090;11.464;2022-10-17T09:41:02;32.80;51.40
27779;DHT22;30234;48.090;11.464;2022-10-17T09:49:17;32.40;50.80
27779;DHT22;30234;48.090;11.464;2022-10-17T09:54:10;32.40;50.90
27779;DHT22;30234;48.090;11.464;2022-10-17T09:57:56;32.60;50.70
27779;DHT22;30234;48.090;11.464;2022-10-17T10:02:08;33.00;50.80
27779;DHT22;30234;48.090;11.464;2022-10-17T10:06:17;33.30;49.90
27779;DHT22;30234;48.090;11.464;2022-10-17T10:10:27;32.80;49.00
27779;DHT22;30234;48.090;11.464;2022-10-17T10:14:32;33.10;49.90
27779;DHT22;30234;48.090;11.464;2022-10-17T10:18:35;33.10;48.80
27779;DHT22;30234;48.090;11.464;2022-10-17T10:22:36;33.30;48.20
27779;DHT22;30234;48.090;11.464;2022-10-17T10:26:44;33.30;47.80
27779;DHT22;30234;48.090;11.464;2022-10-17T10:30:50;33.90;47.90
27779;DHT22;30234;48.090;11.464;2022-10-17T10:39:03;34.20;45.70
27779;DHT22;30234;48.090;11.464;2022-10-17T10:43:05;33.50;46.40
27779;DHT22;30234;48.090;11.464;2022-10-17T10:47:24;33.90;46.40
27779;DHT22;30234;48.090;11.464;2022-10-17T10:51:31;34.20;46.20
27779;DHT22;30234;48.090;11.464;2022-10-17T10:56:02;34.00;45.40
27779;DHT22;30234;48.090;11.464;2022-10-17T11:00:23;33.60;44.80
27779;DHT22;30234;48.090;11.464;2022-10-17T11:14:03;33.30;44.30
27779;DHT22;30234;48.090;11.464;2022-10-17T11:18:32;33.10;44.10
27779;DHT22;30234;48.090;11.464;2022-10-17T11:22:45;32.40;46.20
27779;DHT22;30234;48.090;11.464;2022-10-17T11:27:02;32.90;45.50
27779;DHT22;30234;48.090;11.464;2022-10-17T11:31:14;33.00;44.10
27779;DHT22;30234;48.090;11.464;2022-10-17T11:35:27;33.00;44.60
27779;DHT22;30234;48.090;11.464;2022-10-17T11:39:53;32.80;44.50
27779;DHT22;30234;48.090;11.464;2022-10-17T11:44:07;33.00;44.00
27779;DHT22;30234;48.090;11.464;2022-10-17T11:48:34;33.30;44.50
27779;DHT22;30234;48.090;11.464;2022-10-17T11:52:43;33.30;43.80
27779;DHT22;30234;48.090;11.464;2022-10-17T12:01:40;33.90;42.70
27779;DHT22;30234;48.090;11.464;2022-10-17T12:06:26;34.00;42.60
27779;DHT22;30234;48.090;11.464;2022-10-17T12:10:52;33.90;43.10
27779;DHT22;30234;48.090;11.464;2022-10-17T12:15:26;33.70;44.00
27779;DHT22;30234;48.090;11.464;2022-10-17T12:19:32;33.60;43.30
27779;DHT22;30234;48.090;11.464;2022-10-17T12:23:34;32.90;41.60
27779;DHT22;30234;48.090;11.464;2022-10-17T12:27:42;32.10;41.70
27779;DHT22;30234;48.090;11.464;2022-10-17T12:31:45;31.70;41.90
27779;DHT22;30234;48.090;11.464;2022-10-17T12:35:47;31.90;42.10
27779;DHT22;30234;48.090;11.464;2022-10-17T12:39:49;32.30;42.30
27779;DHT22;30234;48.090;11.464;2022-10-17T12:43:52;32.30;41.40
27779;DHT22;30234;48.090;11.464;2022-10-17T12:47:53;32.40;41.30
27779;DHT22;30234;48.090;11.464;2022-10-17T12:52:23;32.10;41.80
27779;DHT22;30234;48.090;11.464;2022-10-17T12:56:48;32.30;43.20
27779;DHT22;30234;48.090;11.464;2022-10-17T13:00:54;31.60;44.70
27779;DHT22;30234;48.090;11.464;2022-10-17T13:05:06;31.40;45.30
27779;DHT22;30234;48.090;11.464;2022-10-17T13:09:35;31.60;44.70
27779;DHT22;30234;48.090;11.464;2022-10-17T13:13:49;31.60;43.60
27779;DHT22;30234;48.090;11.464;2022-10-17T13:17:59;31.20;43.00
27779;DHT22;30234;48.090;11.464;2022-10-17T13:22:02;31.90;42.30
27779;DHT22;30234;48.090;11.464;2022-10-17T13:26:13;32.20;41.40
27779;DHT22;30234;48.090;11.464;2022-10-17T13:30:31;32.30;41.60
27779;DHT22;30234;48.090;11.464;2022-10-17T13:34:34;32.20;42.00
27779;DHT22;30234;48.090;11.464;2022-10-17T13:38:35;32.30;41.20
27779;DHT22;30234;48.090;11.464;2022-10-17T13:42:38;31.70;42.00
27779;DHT22;30234;48.090;11.464;2022-10-17T13:46:40;31.50;43.20
27779;DHT22;30234;48.090;11.464;2022-10-17T13:50:42;31.30;44.50
27779;DHT22;30234;48.090;11.464;2022-10-17T13:54:45;30.90;44.70
27779;DHT22;30234;48.090;11.464;2022-10-17T13:58:56;31.10;44.40
27779;DHT22;30234;48.090;11.464;2022-10-17T14:02:59;31.10;44.50
27779;DHT22;30234;48.090;11.464;2022-10-17T14:07:00;30.80;44.60
27779;DHT22;30234;48.090;11.464;2022-10-17T14:11:01;30.80;44.70
27779;DHT22;30234;48.090;11.464;2022-10-17T14:15:13;31.30;44.50
27779;DHT22;30234;48.090;11.464;2022-10-17T14:19:26;31.60;45.00
27779;DHT22;30234;48.090;11.464;2022-10-17T14:23:40;31.70;44.80
27779;DHT22;30234;48.090;11.464;2022-10-17T14:28:00;31.40;44.90
27779;DHT22;30234;48.090;11.464;2022-10-17T14:32:12;30.80;45.80
27779;DHT22;30234;48.090;11.464;2022-10-17T14:36:14;30.50;46.80
27779;DHT22;30234;48.090;11.464;2022-10-17T14:40:20;30.10;47.80
27779;DHT22;30234;48.090;11.464;2022-10-17T14:44:29;30.00;48.00
27779;DHT22;30234;48.090;11.464;2022-10-17T14:48:34;29.70;49.20
27779;DHT22;30234;48.090;11.464;2022-10-17T14:52:35;29.30;49.60
27779;DHT22;30234;48.090;11.464;2022-10-17T14:56:42;29.50;50.00
27779;DHT22;30234;48.090;11.464;2022-10-17T15:00:49;29.40;49.20
27779;DHT22;30234;48.090;11.464;2022-10-17T15:04:50;29.00;50.20
27779;DHT22;30234;48.090;11.464;2022-10-17T15:08:51;28.90;51.00
27779;DHT22;30234;48.090;11.464;2022-10-17T15:12:52;28.40;51.80
27779;DHT22;30234;48.090;11.464;2022-10-17T15:16:53;27.80;53.00
27779;DHT22;30234;48.090;11.464;2022-10-17T15:20:54;27.20;54.50
27779;DHT22;30234;48.090;11.464;2022-10-17T15:24:54;30.00;57.50
27779;DHT22;30234;48.090;11.464;2022-10-17T15:28:55;26.40;56.50
27779;DHT22;30234;48.090;11.464;2022-10-17T15:32:57;25.40;58.40
27779;DHT22;30234;48.090;11.464;2022-10-17T15:36:58;24.10;62.20
27779;DHT22;30234;48.090;11.464;2022-10-17T15:40:59;23.10;66.00
27779;DHT22;30234;48.090;11.464;2022-10-17T15:45:00;22.30;69.00
27779;DHT22;30234;48.090;11.464;2022-10-17T15:49:03;21.50;72.00
27779;DHT22;30234;48.090;11.464;2022-10-17T15:53:11;20.80;75.40
27779;DHT22;30234;48.090;11.464;2022-10-17T15:57:18;20.20;77.60
27779;DHT22;30234;48.090;11.464;2022-10-17T16:01:23;19.60;81.80
27779;DHT22;30234;48.090;11.464;2022-10-17T16:05:26;19.10;86.30
27779;DHT22;30234;48.090;11.464;2022-10-17T16:09:28;18.60;92.50
27779;DHT22;30234;48.090;11.464;2022-10-17T16:13:29;18.30;99.90
27779;DHT22;30234;48.090;11.464;2022-10-17T16:17:30;17.90;99.90
27779;DHT22;30234;48.090;11.464;2022-10-17T16:21:34;17.50;99.90
27779;DHT22;30234;48.090;11.464;2022-10-17T16:25:35;17.20;99.90
27779;DHT22;30234;48.090;11.464;2022-10-17T16:29:36;16.90;99.90
27779;DHT22;30234;48.090;11.464;2022-10-17T16:33:37;16.80;99.90
27779;DHT22;30234;48.090;11.464;2022-10-17T16:37:38;16.70;99.90
27779;DHT22;30234;48.090;11.464;2022-10-17T16:41:38;16.40;99.90
27779;DHT22;30234;48.090;11.464;2022-10-17T16:45:39;16.20;99.90
27779;DHT22;30234;48.090;11.464;2022-10-17T16:49:40;16.00;99.90
27779;DHT22;30234;48.090;11.464;2022-10-17T16:53:45;15.70;99.90
27779;DHT22;30234;48.090;11.464;2022-10-17T16:57:50;15.40;99.90
27779;DHT22;30234;48.090;11.464;2022-10-17T17:01:50;15.70;99.90
27779;DHT22;30234;48.090;11.464;2022-10-17T17:05:51;14.90;99.90
27779;DHT22;30234;48.090;11.464;2022-10-17T17:09:52;14.70;99.90
27779;DHT22;30234;48.090;11.464;2022-10-17T17:13:56;14.50;99.90
27779;DHT22;30234;48.090;11.464;2022-10-17T17:17:58;14.20;99.90
27779;DHT22;30234;48.090;11.464;2022-10-17T17:21:58;14.10;99.90
27779;DHT22;30234;48.090;11.464;2022-10-17T17:26:04;14.00;99.90
27779;DHT22;30234;48.090;11.464;2022-10-17T17:30:06;13.90;99.90
27779;DHT22;30234;48.090;11.464;2022-10-17T17:34:07;13.70;99.90
27779;DHT22;30234;48.090;11.464;2022-10-17T17:38:08;13.60;99.90
27779;DHT22;30234;48.090;11.464;2022-10-17T17:42:09;13.40;99.90
27779;DHT22;30234;48.090;11.464;2022-10-17T17:46:10;13.30;99.90
27779;DHT22;30234;48.090;11.464;2022-10-17T17:50:12;13.30;99.90
27779;DHT22;30234;48.090;11.464;2022-10-17T17:54:13;14.50;99.90
27779;DHT22;30234;48.090;11.464;2022-10-17T17:58:14;13.10;99.90
27779;DHT22;30234;48.090;11.464;2022-10-17T18:02:15;13.20;99.90
27779;DHT22;30234;48.090;11.464;2022-10-17T18:06:16;14.10;99.90
27779;DHT22;30234;48.090;11.464;2022-10-17T18:10:18;13.00;99.90
27779;DHT22;30234;48.090;11.464;2022-10-17T18:14:18;14.10;99.90
27779;DHT22;30234;48.090;11.464;2022-10-17T18:18:28;12.80;99.90
27779;DHT22;30234;48.090;11.464;2022-10-17T18:22:29;12.70;99.90
27779;DHT22;30234;48.090;11.464;2022-10-17T18:26:30;12.60;99.90
27779;DHT22;30234;48.090;11.464;2022-10-17T18:30:34;12.50;99.90
27779;DHT22;30234;48.090;11.464;2022-10-17T18:34:36;12.40;99.90
27779;DHT22;30234;48.090;11.464;2022-10-17T18:38:36;14.00;99.90
27779;DHT22;30234;48.090;11.464;2022-10-17T18:42:40;12.30;99.90
27779;DHT22;30234;48.090;11.464;2022-10-17T18:46:42;12.20;99.90
27779;DHT22;30234;48.090;11.464;2022-10-17T18:50:44;12.10;99.90
27779;DHT22;30234;48.090;11.464;2022-10-17T18:54:45;13.30;99.90
27779;DHT22;30234;48.090;11.464;2022-10-17T18:58:46;12.00;99.90
27779;DHT22;30234;48.090;11.464;2022-10-17T19:02:47;11.90;99.90
27779;DHT22;30234;48.090;11.464;2022-10-17T19:06:47;11.90;99.90
27779;DHT22;30234;48.090;11.464;2022-10-17T19:10:48;11.80;99.90
27779;DHT22;30234;48.090;11.464;2022-10-17T19:14:49;11.70;99.90
27779;DHT22;30234;48.090;11.464;2022-10-17T19:18:54;11.70;99.90
27779;DHT22;30234;48.090;11.464;2022-10-17T19:22:59;11.60;99.90
27779;DHT22;30234;48.090;11.464;2022-10-17T19:27:00;11.40;99.90
27779;DHT22;30234;48.090;11.464;2022-10-17T19:31:04;11.60;99.90
27779;DHT22;30234;48.090;11.464;2022-10-17T19:35:05;11.40;99.90
27779;DHT22;30234;48.090;11.464;2022-10-17T19:39:13;11.30;99.90
27779;DHT22;30234;48.090;11.464;2022-10-17T19:43:15;11.30;99.90
27779;DHT22;30234;48.090;11.464;2022-10-17T19:47:16;11.30;99.90
27779;DHT22;30234;48.090;11.464;2022-10-17T19:51:18;12.40;99.90
27779;DHT22;30234;48.090;11.464;2022-10-17T19:55:19;11.30;99.90
27779;DHT22;30234;48.090;11.464;2022-10-17T19:59:20;11.20;99.90
27779;DHT22;30234;48.090;11.464;2022-10-17T20:03:22;11.20;99.90
27779;DHT22;30234;48.090;11.464;2022-10-17T20:07:23;11.10;99.90
27779;DHT22;30234;48.090;11.464;2022-10-17T20:11:26;11.00;99.90
27779;DHT22;30234;48.090;11.464;2022-10-17T20:15:27;10.90;99.90
27779;DHT22;30234;48.090;11.464;2022-10-17T20:19:28;11.60;99.90
27779;DHT22;30234;48.090;11.464;2022-10-17T20:23:29;11.90;99.90
27779;DHT22;30234;48.090;11.464;2022-10-17T20:27:30;11.30;99.90
27779;DHT22;30234;48.090;11.464;2022-10-17T20:31:31;10.70;99.90
27779;DHT22;30234;48.090;11.464;2022-10-17T20:35:31;10.70;99.90
27779;DHT22;30234;48.090;11.464;2022-10-17T20:39:32;10.50;99.90
27779;DHT22;30234;48.090;11.464;2022-10-17T20:43:34;10.60;99.90
27779;DHT22;30234;48.090;11.464;2022-10-17T20:47:36;10.50;99.90
27779;DHT22;30234;48.090;11.464;2022-10-17T20:51:36;10.60;99.90
27779;DHT22;30234;48.090;11.464;2022-10-17T20:55:37;10.50;99.90
27779;DHT22;30234;48.090;11.464;2022-10-17T20:59:38;10.50;99.90
27779;DHT22;30234;48.090;11.464;2022-10-17T21:03:39;10.50;99.90
27779;DHT22;30234;48.090;11.464;2022-10-17T21:07:40;10.40;99.90
27779;DHT22;30234;48.090;11.464;2022-10-17T21:11:41;11.00;99.90
27779;DHT22;30234;48.090;11.464;2022-10-17T21:15:42;12.00;99.90
27779;DHT22;30234;48.090;11.464;2022-10-17T21:19:43;10.30;99.90
27779;DHT22;30234;48.090;11.464;2022-10-17T21:23:45;10.30;99.90
27779;DHT22;30234;48.090;11.464;2022-10-17T21:27:51;11.10;99.90
27779;DHT22;30234;48.090;11.464;2022-10-17T21:31:52;11.10;99.90
27779;DHT22;30234;48.090;11.464;2022-10-17T21:35:54;10.70;99.90
27779;DHT22;30234;48.090;11.464;2022-10-17T21:39:55;11.10;99.90
27779;DHT22;30234;48.090;11.464;2022-10-17T21:44:10;10.30;99.90
27779;DHT22;30234;48.090;11.464;2022-10-17T21:48:16;10.20;99.90
27779;DHT22;30234;48.090;11.464;2022-10-17T21:52:17;11.00;99.90
27779;DHT22;30234;48.090;11.464;2022-10-17T21:56:24;10.20;99.90
27779;DHT22;30234;48.090;11.464;2022-10-17T22:00:30;10.30;99.90
27779;DHT22;30234;48.090;11.464;2022-10-17T22:04:30;10.30;99.90
27779;DHT22;30234;48.090;11.464;2022-10-17T22:08:32;11.50;99.90
27779;DHT22;30234;48.090;11.464;2022-10-17T22:12:34;10.50;99.90
27779;DHT22;30234;48.090;11.464;2022-10-17T22:16:34;10.50;99.90
27779;DHT22;30234;48.090;11.464;2022-10-17T22:20:35;11.10;99.90
27779;DHT22;30234;48.090;11.464;2022-10-17T22:24:36;10.60;99.90
27779;DHT22;30234;48.090;11.464;2022-10-17T22:28:38;10.60;99.90
27779;DHT22;30234;48.090;11.464;2022-10-17T22:32:40;10.60;99.90
27779;DHT22;30234;48.090;11.464;2022-10-17T22:36:41;10.70;99.90
27779;DHT22;30234;48.090;11.464;2022-10-17T22:40:43;11.00;99.90
27779;DHT22;30234;48.090;11.464;2022-10-17T22:44:45;12.10;99.90
27779;DHT22;30234;48.090;11.464;2022-10-17T22:48:46;11.00;99.90
27779;DHT22;30234;48.090;11.464;2022-10-17T22:52:47;11.10;99.90
27779;DHT22;30234;48.090;11.464;2022-10-17T22:56:48;12.10;99.90
27779;DHT22;30234;48.090;11.464;2022-10-17T23:00:50;11.40;99.90
27779;DHT22;30234;48.090;11.464;2022-10-17T23:04:52;11.40;99.90
27779;DHT22;30234;48.090;11.464;2022-10-17T23:08:52;11.50;99.90
27779;DHT22;30234;48.090;11.464;2022-10-17T23:12:54;11.40;99.90
27779;DHT22;30234;48.090;11.464;2022-10-17T23:16:55;11.40;99.90
27779;DHT22;30234;48.090;11.464;2022-10-17T23:20:56;11.30;99.90
27779;DHT22;30234;48.090;11.464;2022-10-17T23:24:57;11.30;99.90
27779;DHT22;30234;48.090;11.464;2022-10-17T23:28:58;11.20;99.90
27779;DHT22;30234;48.090;11.464;2022-10-17T23:32:59;11.20;99.90
27779;DHT22;30234;48.090;11.464;2022-10-17T23:37:00;11.60;99.90
27779;DHT22;30234;48.090;11.464;2022-10-17T23:41:01;11.70;99.90
27779;DHT22;30234;48.090;11.464;2022-10-17T23:45:02;11.10;99.90
27779;DHT22;30234;48.090;11.464;2022-10-17T23:49:06;10.70;99.90
27779;DHT22;30234;48.090;11.464;2022-10-17T23:53:07;10.60;99.90
27779;DHT22;30234;48.090;11.464;2022-10-17T23:57:07;10.50;99.90
